Lowlands Queen — 3FTU4 — position and weather

sailwx.info

Track history (hours):
 
Tides and Currents Weather Stations Pressure Air Temp Water Temp Dewpoint Dewpoint Depression Visibility Wind Speed Wind Dir Waves Ship Positions

Lowlands Queen

Last reported at 2014-Nov-27 05:27 UTC. Time now 2014-Nov-27 06:42 UTC.
Position N 31°49' E 120°57'.

Length 225 m; draft 12 m.

Type: Cargo ship. MMSI: 370913000.

Date/timePositionNaut miles runAvg speedWind from/ knotsBaromVisibWave heightAir tempDewpointWater temp
2014-Nov-27 05:27N 31°49' E 120°57'0 0.0
2014-Nov-27 03:30N 31°49' E 120°57'0 0.0
2014-Nov-27 02:31N 31°49' E 120°57'0 0.0
2014-Nov-27 01:27N 31°49' E 120°57'0 0.0
2014-Nov-27 00:33N 31°49' E 120°57'0 0.0
2014-Nov-26 23:30N 31°49' E 120°57'0 0.0
2014-Nov-26 22:18N 31°49' E 120°57'0 0.0
2014-Nov-26 21:33N 31°49' E 120°57'0 0.0
2014-Nov-26 20:33N 31°49' E 120°57'0 0.0
2014-Nov-26 19:33N 31°49' E 120°57'0 0.0
2014-Nov-26 18:31N 31°49' E 120°57'0 0.0
2014-Nov-26 17:33N 31°49' E 120°57'0 0.0
2014-Nov-26 16:30N 31°49' E 120°57'0 0.0
2014-Nov-26 15:33N 31°49' E 120°57'0 0.1
2014-Nov-26 14:34N 31°49' E 120°57'5 5.3
2014-Nov-26 13:33N 31°46' E 121°02'6 6.0
2014-Nov-26 12:34N 31°43' E 121°08'7 7.4
2014-Nov-26 11:34N 31°38' E 121°15'1111.0
2014-Nov-26 10:33N 31°31' E 121°24'7 7.4
2014-Nov-26 09:33N 31°25' E 121°31'7 7.3
2014-Nov-26 08:34N 31°22' E 121°38'8 7.9
2014-Nov-26 07:33N 31°18' E 121°46'1111.2
2014-Nov-26 06:33N 31°15' E 121°59'1111.0
2014-Nov-26 05:34N 31°11' E 122°11'1111.0
2014-Nov-26 04:34N 31°06' E 122°22'9 8.9
2014-Nov-26 03:33N 31°07' E 122°33'86 1.9
2014-Nov-24 05:28N 29°41' E 122°32'1111.7
2014-Nov-24 04:33N 29°44' E 122°21'10 9.6
2014-Nov-24 03:33N 29°51' E 122°12'6 6.3
2014-Nov-24 02:33N 29°54' E 122°06'0 0.0
2014-Nov-24 00:09N 29°54' E 122°06'0 0.0
2014-Nov-23 23:21N 29°54' E 122°06'0 0.0
2014-Nov-23 22:15N 29°54' E 122°06'0 0.0
2014-Nov-23 21:09N 29°54' E 122°06'0 0.0
2014-Nov-23 19:21N 29°54' E 122°06'0 0.0
2014-Nov-23 18:15N 29°54' E 122°06'0 0.0
2014-Nov-23 17:15N 29°54' E 122°06'0 0.0
2014-Nov-23 16:21N 29°54' E 122°06'0 0.0
2014-Nov-23 15:21N 29°54' E 122°06'0 0.0
2014-Nov-23 14:03N 29°54' E 122°06'0 0.0
2014-Nov-23 13:33N 29°54' E 122°06'0 0.0
2014-Nov-23 12:33N 29°54' E 122°06'0 0.0
2014-Nov-23 10:27N 29°54' E 122°06'0 0.0
2014-Nov-23 09:27N 29°54' E 122°06'0 0.0
2014-Nov-23 07:09N 29°54' E 122°06'0 0.0
2014-Nov-23 06:09N 29°54' E 122°06'0 0.0
2014-Nov-23 05:21N 29°54' E 122°06'0 0.0
2014-Nov-23 04:33N 29°54' E 122°06'0 0.0
2014-Nov-23 03:33N 29°54' E 122°06'3 3.0
2014-Nov-23 02:33N 29°55' E 122°10'10 9.8
2014-Nov-23 01:33N 29°47' E 122°16'9 9.0
2014-Nov-23 00:33N 29°44' E 122°26'3 3.2
2014-Nov-22 23:31N 29°44' E 122°30'0 0.1
2014-Nov-22 20:07N 29°44' E 122°30'0 0.0
2014-Nov-22 18:07N 29°44' E 122°30'0 0.1
2014-Nov-22 17:31N 29°44' E 122°30'0 0.0
2014-Nov-22 02:31N 29°44' E 122°30'0 0.0
2014-Nov-21 19:31N 29°44' E 122°30'0 0.1
2014-Nov-21 18:25N 29°44' E 122°30'0 0.1
2014-Nov-21 15:07N 29°44' E 122°30'0 0.0
2014-Nov-21 07:13N 29°44' E 122°30'2 3.0
2014-Nov-21 06:33N 29°42' E 122°30'1210.6
2014-Nov-21 05:26N 29°43' E 122°43'  
Track history (hours):
 
Tides and Currents Weather Stations Pressure Air Temp Water Temp Dewpoint Dewpoint Depression Visibility Wind Speed Wind Dir Waves Ship Positions

Lowlands Queen

Last reported at 2014-Nov-27 05:27 UTC. Time now 2014-Nov-27 06:42 UTC.
Position N 31°49' E 120°57'.

Length 225 m; draft 12 m.

Type: Cargo ship. MMSI: 370913000.

Date/timePositionNaut miles runAvg speedWind from/ knotsBaromVisibWave heightAir tempDewpointWater temp
2014-Nov-27 05:27N 31°49' E 120°57'0 0.0
2014-Nov-27 03:30N 31°49' E 120°57'0 0.0
2014-Nov-27 02:31N 31°49' E 120°57'0 0.0
2014-Nov-27 01:27N 31°49' E 120°57'0 0.0
2014-Nov-27 00:33N 31°49' E 120°57'0 0.0
2014-Nov-26 23:30N 31°49' E 120°57'0 0.0
2014-Nov-26 22:18N 31°49' E 120°57'0 0.0
2014-Nov-26 21:33N 31°49' E 120°57'0 0.0
2014-Nov-26 20:33N 31°49' E 120°57'0 0.0
2014-Nov-26 19:33N 31°49' E 120°57'0 0.0
2014-Nov-26 18:31N 31°49' E 120°57'0 0.0
2014-Nov-26 17:33N 31°49' E 120°57'0 0.0
2014-Nov-26 16:30N 31°49' E 120°57'0 0.0
2014-Nov-26 15:33N 31°49' E 120°57'0 0.1
2014-Nov-26 14:34N 31°49' E 120°57'5 5.3
2014-Nov-26 13:33N 31°46' E 121°02'6 6.0
2014-Nov-26 12:34N 31°43' E 121°08'7 7.4
2014-Nov-26 11:34N 31°38' E 121°15'1111.0
2014-Nov-26 10:33N 31°31' E 121°24'7 7.4
2014-Nov-26 09:33N 31°25' E 121°31'7 7.3
2014-Nov-26 08:34N 31°22' E 121°38'8 7.9
2014-Nov-26 07:33N 31°18' E 121°46'1111.2
2014-Nov-26 06:33N 31°15' E 121°59'1111.0
2014-Nov-26 05:34N 31°11' E 122°11'1111.0
2014-Nov-26 04:34N 31°06' E 122°22'9 8.9
2014-Nov-26 03:33N 31°07' E 122°33'86 1.9
2014-Nov-24 05:28N 29°41' E 122°32'1111.7
2014-Nov-24 04:33N 29°44' E 122°21'10 9.6
2014-Nov-24 03:33N 29°51' E 122°12'6 6.3
2014-Nov-24 02:33N 29°54' E 122°06'0 0.0
2014-Nov-24 00:09N 29°54' E 122°06'0 0.0
2014-Nov-23 23:21N 29°54' E 122°06'0 0.0
2014-Nov-23 22:15N 29°54' E 122°06'0 0.0
2014-Nov-23 21:09N 29°54' E 122°06'0 0.0
2014-Nov-23 19:21N 29°54' E 122°06'0 0.0
2014-Nov-23 18:15N 29°54' E 122°06'0 0.0
2014-Nov-23 17:15N 29°54' E 122°06'0 0.0
2014-Nov-23 16:21N 29°54' E 122°06'0 0.0
2014-Nov-23 15:21N 29°54' E 122°06'0 0.0
2014-Nov-23 14:03N 29°54' E 122°06'0 0.0
2014-Nov-23 13:33N 29°54' E 122°06'0 0.0
2014-Nov-23 12:33N 29°54' E 122°06'0 0.0
2014-Nov-23 10:27N 29°54' E 122°06'0 0.0
2014-Nov-23 09:27N 29°54' E 122°06'0 0.0
2014-Nov-23 07:09N 29°54' E 122°06'0 0.0
2014-Nov-23 06:09N 29°54' E 122°06'0 0.0
2014-Nov-23 05:21N 29°54' E 122°06'0 0.0
2014-Nov-23 04:33N 29°54' E 122°06'0 0.0
2014-Nov-23 03:33N 29°54' E 122°06'3 3.0
2014-Nov-23 02:33N 29°55' E 122°10'10 9.8
2014-Nov-23 01:33N 29°47' E 122°16'9 9.0
2014-Nov-23 00:33N 29°44' E 122°26'3 3.2
2014-Nov-22 23:31N 29°44' E 122°30'0 0.1
2014-Nov-22 20:07N 29°44' E 122°30'0 0.0
2014-Nov-22 18:07N 29°44' E 122°30'0 0.1
2014-Nov-22 17:31N 29°44' E 122°30'0 0.0
2014-Nov-22 02:31N 29°44' E 122°30'0 0.0
2014-Nov-21 19:31N 29°44' E 122°30'0 0.1
2014-Nov-21 18:25N 29°44' E 122°30'0 0.1
2014-Nov-21 15:07N 29°44' E 122°30'0 0.0
2014-Nov-21 07:13N 29°44' E 122°30'2 3.0
2014-Nov-21 06:33N 29°42' E 122°30'1210.6
2014-Nov-21 05:26N 29°43' E 122°43'  

Dump ship's entire track history